Terminal Aerodrome Forecast
Issued by NWS Jacksonville, FL

Home | Current Version | Previous Version | Text Only | Print | Product List | Glossary On
Versions: 1 2 3 4 5 6 7 8 9 10 11 12
000
FTUS42 KJAX 291120
TAFGNV
TAF
KGNV 291120Z 2912/3012 VRB03KT P6SM SKC
     FM291400 30008KT P6SM SCT030
     FM300000 35005KT P6SM FEW040 SCT250=

USA.gov is the U.S. government's official web portal to all federal, state and local government web resources and services.